createdAt,value
2022-11-12T00:01:06.293Z,7.70
2022-11-12T00:03:35.491Z,7.70
2022-11-12T00:06:03.329Z,7.60
2022-11-12T00:08:31.204Z,7.60
2022-11-12T00:10:59.033Z,7.60
2022-11-12T00:13:26.956Z,7.60
2022-11-12T00:15:54.787Z,7.60
2022-11-12T00:18:22.990Z,7.50
2022-11-12T00:20:52.288Z,7.50
2022-11-12T00:23:20.177Z,7.40
2022-11-12T00:25:48.027Z,7.40
2022-11-12T00:28:15.882Z,7.40
2022-11-12T00:30:43.753Z,7.40
2022-11-12T00:33:11.567Z,7.40
2022-11-12T00:35:39.404Z,7.40
2022-11-12T00:38:08.585Z,7.40
2022-11-12T00:40:36.489Z,7.40
2022-11-12T00:43:04.391Z,7.40
2022-11-12T00:45:32.237Z,7.40
2022-11-12T00:48:00.102Z,7.40
2022-11-12T00:50:27.928Z,7.40
2022-11-12T00:52:55.822Z,7.40
2022-11-12T00:55:25.007Z,7.40
2022-11-12T00:57:52.842Z,7.40
2022-11-12T01:00:20.980Z,7.40
2022-11-12T01:02:51.312Z,7.30
2022-11-12T01:05:20.595Z,7.30
2022-11-12T01:07:54.720Z,7.30
2022-11-12T01:10:25.107Z,7.30
2022-11-12T01:12:52.945Z,7.30
2022-11-12T01:15:20.776Z,7.20
2022-11-12T01:17:48.624Z,7.20
2022-11-12T01:20:16.799Z,7.20
2022-11-12T01:22:44.681Z,7.20
2022-11-12T01:25:12.617Z,7.20
2022-11-12T01:27:41.814Z,7.10
2022-11-12T01:30:10.844Z,7.00
2022-11-12T01:32:38.811Z,7.00
2022-11-12T01:35:07.351Z,7.00
2022-11-12T01:37:35.194Z,7.00
2022-11-12T01:40:03.063Z,7.00
2022-11-12T01:42:32.811Z,7.00
2022-11-12T01:45:02.026Z,7.00
2022-11-12T01:47:31.983Z,7.00
2022-11-12T01:50:04.896Z,7.00
2022-11-12T01:52:37.186Z,7.00
2022-11-12T01:55:08.547Z,7.00
2022-11-12T01:57:40.875Z,6.90
2022-11-12T02:00:13.713Z,6.90
2022-11-12T02:02:44.175Z,6.80
2022-11-12T02:05:13.015Z,6.80
2022-11-12T02:07:44.094Z,6.80
2022-11-12T02:10:11.995Z,6.80
2022-11-12T02:12:57.448Z,6.70
2022-11-12T02:15:26.765Z,6.80
2022-11-12T02:17:54.856Z,6.70
2022-11-12T02:20:23.062Z,6.70
2022-11-12T02:22:52.308Z,6.70
2022-11-12T02:25:23.296Z,6.70
2022-11-12T02:27:54.548Z,6.70
2022-11-12T02:30:33.452Z,6.70
2022-11-12T02:33:01.589Z,6.70
2022-11-12T02:35:29.424Z,6.70
2022-11-12T02:37:58.831Z,6.70
2022-11-12T02:40:26.969Z,6.70
2022-11-12T02:42:54.841Z,6.70
2022-11-12T02:45:23.103Z,6.70
2022-11-12T02:47:51.379Z,6.70
2022-11-12T02:50:19.615Z,6.70
2022-11-12T02:52:47.451Z,6.70
2022-11-12T02:55:16.767Z,6.70
2022-11-12T02:57:44.597Z,6.70
2022-11-12T03:00:14.149Z,6.70
2022-11-12T03:02:43.489Z,6.80
2022-11-12T03:05:12.088Z,6.70
2022-11-12T03:07:40.231Z,6.70
2022-11-12T03:10:08.496Z,6.70
2022-11-12T03:12:37.715Z,6.60
2022-11-12T03:15:06.344Z,6.60
2022-11-12T03:17:35.805Z,6.60
2022-11-12T03:20:03.884Z,6.60
2022-11-12T03:22:31.792Z,6.50
2022-11-12T03:24:59.624Z,6.50
2022-11-12T03:27:27.510Z,6.50
2022-11-12T03:29:56.815Z,6.40
2022-11-12T03:32:24.797Z,6.40
2022-11-12T03:34:55.448Z,6.40
2022-11-12T03:37:23.721Z,6.40
2022-11-12T03:39:51.560Z,6.30
2022-11-12T03:42:22.468Z,6.30
2022-11-12T03:44:50.337Z,6.30
2022-11-12T03:47:19.524Z,6.30
2022-11-12T03:49:47.343Z,6.30
2022-11-12T03:52:15.195Z,6.20
2022-11-12T03:54:43.079Z,6.20
2022-11-12T03:57:10.903Z,6.20
2022-11-12T03:59:38.755Z,6.20
2022-11-12T04:02:06.558Z,6.30
2022-11-12T04:04:49.635Z,6.30
2022-11-12T04:07:34.826Z,6.30
2022-11-12T04:10:02.718Z,6.30
2022-11-12T04:12:48.097Z,6.30
2022-11-12T04:15:16.098Z,6.30
2022-11-12T04:18:13.032Z,6.40
2022-11-12T04:20:59.686Z,6.40
2022-11-12T04:23:27.631Z,6.40
2022-11-12T04:26:12.792Z,6.30
2022-11-12T04:29:00.617Z,6.40
2022-11-12T04:31:27.547Z,6.30
2022-11-12T04:33:55.396Z,6.30
2022-11-12T04:36:24.586Z,6.30
2022-11-12T04:38:52.424Z,6.30
2022-11-12T04:41:37.880Z,6.40
2022-11-12T04:44:23.324Z,6.30
2022-11-12T04:46:51.152Z,6.30
2022-11-12T04:49:19.012Z,6.40
2022-11-12T04:52:06.169Z,6.40
2022-11-12T04:54:34.726Z,6.40
2022-11-12T04:57:02.556Z,6.40
2022-11-12T04:59:30.499Z,6.40
2022-11-12T05:01:58.396Z,6.30
2022-11-12T05:04:27.598Z,6.40
2022-11-12T05:06:57.501Z,6.40
2022-11-12T05:09:26.860Z,6.40
2022-11-12T05:11:55.266Z,6.30
2022-11-12T05:14:23.454Z,6.30
2022-11-12T05:16:51.611Z,6.30
2022-11-12T05:19:20.408Z,6.30
2022-11-12T05:22:06.468Z,6.30
2022-11-12T05:24:43.431Z,6.30
2022-11-12T05:27:13.868Z,6.30
2022-11-12T05:29:42.360Z,6.30
2022-11-12T05:32:12.839Z,6.30
2022-11-12T05:34:40.782Z,6.30
2022-11-12T05:37:09.889Z,6.30
2022-11-12T05:39:37.744Z,6.30
2022-11-12T05:42:14.650Z,6.40
2022-11-12T05:44:42.602Z,6.30
2022-11-12T05:47:10.448Z,6.30
2022-11-12T05:49:38.274Z,6.40
2022-11-12T05:52:06.323Z,6.30
2022-11-12T05:54:34.179Z,6.30
2022-11-12T05:57:02.007Z,6.30
2022-11-12T05:59:31.297Z,6.30
2022-11-12T06:01:59.385Z,6.30
2022-11-12T06:04:27.802Z,6.30
2022-11-12T06:06:55.734Z,6.30
2022-11-12T06:09:23.602Z,6.30
2022-11-12T06:11:51.459Z,6.30
2022-11-12T06:14:19.314Z,6.20
2022-11-12T06:16:48.493Z,6.20
2022-11-12T06:19:16.328Z,6.20
2022-11-12T06:21:44.177Z,6.20
2022-11-12T06:24:12.110Z,6.20
2022-11-12T06:26:39.947Z,6.10
2022-11-12T06:29:07.781Z,6.10
2022-11-12T06:31:35.649Z,6.10
2022-11-12T06:34:04.829Z,6.10
2022-11-12T06:36:32.690Z,6.00
2022-11-12T06:39:00.572Z,6.00
2022-11-12T06:41:28.516Z,6.00
2022-11-12T06:43:56.395Z,6.00
2022-11-12T06:46:24.222Z,6.00
2022-11-12T06:48:52.121Z,6.00
2022-11-12T06:51:22.478Z,6.10
2022-11-12T06:53:51.837Z,6.00
2022-11-12T06:56:19.706Z,6.00
2022-11-12T06:58:47.585Z,6.10
2022-11-12T07:01:17.754Z,6.10
2022-11-12T07:03:46.231Z,6.10
2022-11-12T07:06:18.334Z,6.10
2022-11-12T07:08:49.008Z,6.20
2022-11-12T07:11:17.337Z,6.20
2022-11-12T07:13:45.658Z,6.30
2022-11-12T07:16:18.369Z,6.30
2022-11-12T07:18:47.258Z,6.30
2022-11-12T07:21:17.092Z,6.40
2022-11-12T07:23:45.439Z,6.40
2022-11-12T07:26:17.876Z,6.40
2022-11-12T07:28:46.360Z,6.50
2022-11-12T07:31:16.290Z,6.50
2022-11-12T07:33:45.047Z,6.50
2022-11-12T07:36:14.675Z,6.60
2022-11-12T07:38:43.531Z,6.60
2022-11-12T07:41:14.651Z,6.70
2022-11-12T07:43:45.550Z,6.70
2022-11-12T07:46:15.176Z,6.80
2022-11-12T07:48:44.503Z,6.90
2022-11-12T07:51:15.446Z,7.00
2022-11-12T07:53:43.798Z,7.00
2022-11-12T07:56:13.168Z,7.10
2022-11-12T07:58:41.311Z,7.10
2022-11-12T08:01:11.626Z,7.20
2022-11-12T08:03:39.613Z,7.20
2022-11-12T08:06:08.201Z,7.30
2022-11-12T08:08:36.115Z,7.30
2022-11-12T08:11:03.996Z,7.40
2022-11-12T08:13:31.939Z,7.40
2022-11-12T08:16:00.225Z,7.40
2022-11-12T08:18:29.951Z,7.50
2022-11-12T08:21:01.437Z,7.50
2022-11-12T08:23:29.787Z,7.60
2022-11-12T08:25:59.933Z,7.60
2022-11-12T08:28:29.694Z,7.70
2022-11-12T08:30:58.227Z,7.70
2022-11-12T08:33:26.145Z,7.80
2022-11-12T08:35:55.369Z,7.90
2022-11-12T08:38:23.368Z,8.00
2022-11-12T08:40:51.288Z,8.10
2022-11-12T08:43:19.170Z,8.20
2022-11-12T08:45:48.667Z,8.30
2022-11-12T08:48:16.524Z,8.40
2022-11-12T08:50:44.497Z,8.50
2022-11-12T08:53:14.800Z,8.60
2022-11-12T08:55:42.956Z,8.70
2022-11-12T08:58:11.304Z,8.90
2022-11-12T09:00:41.948Z,8.90
2022-11-12T09:03:16.144Z,9.10
2022-11-12T09:05:44.040Z,9.20
2022-11-12T09:08:15.038Z,9.30
2022-11-12T09:10:43.100Z,9.30
2022-11-12T09:13:11.177Z,9.40
2022-11-12T09:15:39.410Z,9.50
2022-11-12T09:18:09.619Z,9.50
2022-11-12T09:20:37.550Z,9.60
2022-11-12T09:23:08.283Z,9.80
2022-11-12T09:25:38.066Z,10.00
2022-11-12T09:28:10.277Z,10.20
2022-11-12T09:30:39.473Z,10.50
2022-11-12T09:33:07.725Z,10.80
2022-11-12T09:35:35.691Z,11.10
2022-11-12T09:38:04.436Z,11.40
2022-11-12T09:40:48.423Z,11.70
2022-11-12T09:43:23.316Z,11.90
2022-11-12T09:46:13.477Z,11.90
2022-11-12T09:48:45.420Z,12.00
2022-11-12T09:51:23.013Z,11.90
2022-11-12T09:53:56.918Z,12.00
2022-11-12T09:56:28.198Z,12.20
2022-11-12T09:58:56.532Z,12.50
2022-11-12T10:01:34.429Z,12.90
2022-11-12T10:04:19.839Z,13.20
2022-11-12T10:06:56.211Z,13.60
2022-11-12T10:09:29.722Z,13.90
2022-11-12T10:12:24.352Z,14.10
2022-11-12T10:15:22.351Z,14.30
2022-11-12T10:17:55.096Z,14.50
2022-11-12T10:20:27.704Z,14.90
2022-11-12T10:23:07.251Z,15.40
2022-11-12T10:25:36.309Z,15.80
2022-11-12T10:28:17.843Z,16.00
2022-11-12T10:30:46.255Z,16.30
2022-11-12T10:33:16.074Z,16.60
2022-11-12T10:35:43.948Z,16.70
2022-11-12T10:38:16.682Z,16.80
2022-11-12T10:40:44.683Z,16.80
2022-11-12T10:43:24.757Z,17.00
2022-11-12T10:45:52.958Z,17.20
2022-11-12T10:48:27.235Z,17.50
2022-11-12T10:50:56.189Z,17.90
2022-11-12T10:53:35.293Z,18.10
2022-11-12T10:56:05.436Z,18.50
2022-11-12T10:58:34.666Z,18.70
2022-11-12T11:01:04.458Z,18.70
2022-11-12T11:03:36.576Z,18.80
2022-11-12T11:06:07.631Z,18.90
2022-11-12T11:08:38.953Z,19.00
2022-11-12T11:11:20.948Z,18.90
2022-11-12T11:13:55.410Z,18.90
2022-11-12T11:16:26.452Z,19.00
2022-11-12T11:18:57.657Z,19.20
2022-11-12T11:21:45.762Z,19.30
2022-11-12T11:24:26.590Z,19.40
2022-11-12T11:27:01.333Z,19.50
2022-11-12T11:29:48.383Z,19.70
2022-11-12T11:32:36.067Z,19.80
2022-11-12T11:35:16.170Z,19.90
2022-11-12T11:37:58.460Z,20.10
2022-11-12T11:40:30.707Z,20.10
2022-11-12T11:43:10.591Z,20.00
2022-11-12T11:45:57.030Z,19.90
2022-11-12T11:48:40.490Z,19.90
2022-11-12T11:51:18.987Z,19.80
2022-11-12T11:53:58.493Z,19.70
2022-11-12T11:56:32.488Z,19.60
2022-11-12T11:59:17.694Z,19.50
2022-11-12T12:02:01.021Z,19.50
2022-11-12T12:04:45.187Z,19.40
2022-11-12T12:07:26.772Z,19.30
2022-11-12T12:10:03.520Z,19.10
2022-11-12T12:12:48.797Z,18.90
2022-11-12T12:15:42.463Z,18.80
2022-11-12T12:18:23.193Z,18.50
2022-11-12T12:20:59.627Z,18.30
2022-11-12T12:23:34.295Z,18.10
2022-11-12T12:26:06.559Z,17.90
2022-11-12T12:28:38.838Z,17.80
2022-11-12T12:31:12.126Z,17.60
2022-11-12T12:33:48.169Z,17.50
2022-11-12T12:36:18.879Z,17.50
2022-11-12T12:38:52.668Z,17.40
2022-11-12T12:41:27.657Z,17.30
2022-11-12T12:43:58.527Z,17.10
2022-11-12T12:46:29.021Z,17.00
2022-11-12T12:49:00.896Z,16.90
2022-11-12T12:51:32.055Z,16.80
2022-11-12T12:54:00.107Z,16.70
2022-11-12T12:56:47.006Z,16.60
2022-11-12T12:59:23.502Z,16.50
2022-11-12T13:02:00.366Z,16.50
2022-11-12T13:04:56.246Z,16.50
2022-11-12T13:07:41.666Z,16.50
2022-11-12T13:10:50.360Z,16.40
2022-11-12T13:13:33.106Z,16.40
2022-11-12T13:16:02.780Z,16.20
2022-11-12T13:19:00.165Z,16.10
2022-11-12T13:21:30.331Z,15.90
2022-11-12T13:24:10.986Z,15.80
2022-11-12T13:26:56.746Z,15.60
2022-11-12T13:29:46.874Z,15.50
2022-11-12T13:32:33.806Z,15.40
2022-11-12T13:35:30.611Z,15.30
2022-11-12T13:38:12.012Z,15.30
2022-11-12T13:40:43.839Z,15.20
2022-11-12T13:43:18.510Z,15.10
2022-11-12T13:45:53.519Z,15.00
2022-11-12T13:48:26.461Z,15.00
2022-11-12T13:50:57.783Z,14.90
2022-11-12T13:53:28.898Z,14.80
2022-11-12T13:55:56.904Z,14.80
2022-11-12T13:58:30.413Z,14.70
2022-11-12T14:01:00.639Z,14.60
2022-11-12T14:03:32.190Z,14.60
2022-11-12T14:06:14.914Z,14.50
2022-11-12T14:09:03.641Z,14.40
2022-11-12T14:11:56.323Z,14.30
2022-11-12T14:14:38.373Z,14.20
2022-11-12T14:17:22.130Z,14.10
2022-11-12T14:20:18.885Z,14.00
2022-11-12T14:22:47.504Z,13.90
2022-11-12T14:25:20.517Z,13.80
2022-11-12T14:27:49.495Z,13.70
2022-11-12T14:30:20.792Z,13.70
2022-11-12T14:32:50.864Z,13.60
2022-11-12T14:35:33.256Z,13.60
2022-11-12T14:38:12.294Z,13.50
2022-11-12T14:40:46.160Z,13.40
2022-11-12T14:43:27.949Z,13.40
2022-11-12T14:45:58.846Z,13.30
2022-11-12T14:48:27.299Z,13.30
2022-11-12T14:51:00.253Z,13.20
2022-11-12T14:53:32.813Z,13.10
2022-11-12T14:56:04.334Z,13.10
2022-11-12T14:58:34.341Z,13.00
2022-11-12T15:01:55.627Z,12.90
2022-11-12T15:04:21.651Z,12.90
2022-11-12T15:06:54.803Z,12.80
2022-11-12T15:09:34.652Z,12.80
2022-11-12T15:12:04.993Z,12.70
2022-11-12T15:14:33.085Z,12.60
2022-11-12T15:17:01.317Z,12.50
2022-11-12T15:19:30.450Z,12.40
2022-11-12T15:22:01.168Z,12.30
2022-11-12T15:24:32.883Z,12.30
2022-11-12T15:27:23.309Z,12.20
2022-11-12T15:29:51.188Z,12.10
2022-11-12T15:32:33.864Z,12.00
2022-11-12T15:35:02.995Z,12.00
2022-11-12T15:37:36.147Z,11.90
2022-11-12T15:40:12.623Z,11.80
2022-11-12T15:42:43.563Z,11.70
2022-11-12T15:45:16.499Z,11.70
2022-11-12T15:47:44.349Z,11.50
2022-11-12T15:50:17.759Z,11.50
2022-11-12T15:52:46.143Z,11.40
2022-11-12T15:55:15.340Z,11.30
2022-11-12T15:57:47.791Z,11.30
2022-11-12T16:00:17.425Z,11.20
2022-11-12T16:02:46.894Z,11.20
2022-11-12T16:05:15.443Z,11.10
2022-11-12T16:07:43.333Z,11.00
2022-11-12T16:10:14.810Z,11.00
2022-11-12T16:12:45.399Z,10.90
2022-11-12T16:15:15.198Z,10.90
2022-11-12T16:17:43.516Z,10.80
2022-11-12T16:20:16.651Z,10.80
2022-11-12T16:22:44.605Z,10.70
2022-11-12T16:25:12.505Z,10.70
2022-11-12T16:27:41.164Z,10.60
2022-11-12T16:30:17.967Z,10.60
2022-11-12T16:32:45.927Z,10.50
2022-11-12T16:35:13.936Z,10.50
2022-11-12T16:37:43.086Z,10.50
2022-11-12T16:40:14.879Z,10.40
2022-11-12T16:42:45.694Z,10.40
2022-11-12T16:45:16.118Z,10.30
2022-11-12T16:47:46.070Z,10.30
2022-11-12T16:50:16.931Z,10.20
2022-11-12T16:52:44.809Z,10.20
2022-11-12T16:55:12.716Z,10.10
2022-11-12T16:57:41.229Z,10.00
2022-11-12T17:00:13.025Z,10.00
2022-11-12T17:02:46.309Z,9.90
2022-11-12T17:05:19.876Z,9.90
2022-11-12T17:07:47.836Z,9.80
2022-11-12T17:10:16.811Z,9.80
2022-11-12T17:12:44.749Z,9.80
2022-11-12T17:15:12.637Z,9.80
2022-11-12T17:17:41.841Z,9.80
2022-11-12T17:20:10.892Z,9.70
2022-11-12T17:22:39.024Z,9.70
2022-11-12T17:25:08.121Z,9.70
2022-11-12T17:27:36.091Z,9.60
2022-11-12T17:30:04.195Z,9.60
2022-11-12T17:32:32.056Z,9.60
2022-11-12T17:35:01.318Z,9.50
2022-11-12T17:37:29.204Z,9.50
2022-11-12T17:39:57.052Z,9.40
2022-11-12T17:42:24.923Z,9.40
2022-11-12T17:44:52.774Z,9.40
2022-11-12T17:47:20.662Z,9.30
2022-11-12T17:49:48.615Z,9.30
2022-11-12T17:52:17.899Z,9.30
2022-11-12T17:54:45.801Z,9.20
2022-11-12T17:57:13.635Z,9.20
2022-11-12T17:59:41.583Z,9.10
2022-11-12T18:02:12.154Z,9.10
2022-11-12T18:04:41.384Z,9.10
2022-11-12T18:07:09.332Z,9.00
2022-11-12T18:09:38.522Z,9.00
2022-11-12T18:12:06.959Z,9.00
2022-11-12T18:14:34.953Z,9.00
2022-11-12T18:17:02.960Z,9.00
2022-11-12T18:19:30.863Z,8.90
2022-11-12T18:21:59.694Z,8.90
2022-11-12T18:24:27.569Z,8.90
2022-11-12T18:26:56.813Z,8.90
2022-11-12T18:29:24.697Z,8.90
2022-11-12T18:31:52.569Z,8.80
2022-11-12T18:34:20.415Z,8.80
2022-11-12T18:36:48.290Z,8.70
2022-11-12T18:39:16.207Z,8.70
2022-11-12T18:41:44.052Z,8.70
2022-11-12T18:44:13.529Z,8.70
2022-11-12T18:46:41.360Z,8.70
2022-11-12T18:49:09.302Z,8.60
2022-11-12T18:51:37.844Z,8.60
2022-11-12T18:54:06.060Z,8.60
2022-11-12T18:56:33.910Z,8.60
2022-11-12T18:59:01.759Z,8.50
2022-11-12T19:01:31.293Z,8.50
2022-11-12T19:03:59.202Z,8.50
2022-11-12T19:06:27.406Z,8.40
2022-11-12T19:09:00.343Z,8.40
2022-11-12T19:11:28.566Z,8.40
2022-11-12T19:13:57.023Z,8.30
2022-11-12T19:16:25.221Z,8.30
2022-11-12T19:18:55.773Z,8.30
2022-11-12T19:21:25.457Z,8.30
2022-11-12T19:23:54.846Z,8.20
2022-11-12T19:26:24.387Z,8.20
2022-11-12T19:28:52.526Z,8.20
2022-11-12T19:31:22.825Z,8.20
2022-11-12T19:33:51.226Z,8.10
2022-11-12T19:36:22.409Z,8.10
2022-11-12T19:38:55.044Z,8.10
2022-11-12T19:41:22.964Z,8.00
2022-11-12T19:43:50.938Z,8.00
2022-11-12T19:46:18.876Z,8.00
2022-11-12T19:48:46.808Z,7.90
2022-11-12T19:51:15.007Z,7.90
2022-11-12T19:53:45.364Z,7.90
2022-11-12T19:56:14.602Z,7.90
2022-11-12T19:58:46.132Z,7.80
2022-11-12T20:01:15.869Z,7.80
2022-11-12T20:03:44.440Z,7.80
2022-11-12T20:06:14.620Z,7.80
2022-11-12T20:08:44.151Z,7.80
2022-11-12T20:11:12.542Z,7.70
2022-11-12T20:13:40.654Z,7.70
2022-11-12T20:16:09.035Z,7.70
2022-11-12T20:18:36.896Z,7.70
2022-11-12T20:21:05.449Z,7.70
2022-11-12T20:23:34.236Z,7.70
2022-11-12T20:26:07.804Z,7.60
2022-11-12T20:28:36.461Z,7.60
2022-11-12T20:31:06.831Z,7.60
2022-11-12T20:33:40.842Z,7.60
2022-11-12T20:36:12.116Z,7.50
2022-11-12T20:38:41.156Z,7.50
2022-11-12T20:41:14.288Z,7.50
2022-11-12T20:43:42.649Z,7.50
2022-11-12T20:46:11.883Z,7.50
2022-11-12T20:48:43.309Z,7.40
2022-11-12T20:51:28.950Z,7.40
2022-11-12T20:54:00.532Z,7.40
2022-11-12T20:56:31.546Z,7.40
2022-11-12T20:59:00.268Z,7.30
2022-11-12T21:01:29.862Z,7.30
2022-11-12T21:03:58.340Z,7.30
2022-11-12T21:06:29.814Z,7.20
2022-11-12T21:08:59.650Z,7.20
2022-11-12T21:11:27.586Z,7.20
2022-11-12T21:13:56.788Z,7.20
2022-11-12T21:16:24.688Z,7.20
2022-11-12T21:18:52.544Z,7.20
2022-11-12T21:21:21.267Z,7.20
2022-11-12T21:23:50.909Z,7.20
2022-11-12T21:26:21.068Z,7.20
2022-11-12T21:28:50.661Z,7.20
2022-11-12T21:31:22.105Z,7.10
2022-11-12T21:33:50.601Z,7.10
2022-11-12T21:36:20.079Z,7.10
2022-11-12T21:38:48.493Z,7.00
2022-11-12T21:41:17.971Z,7.00
2022-11-12T21:43:46.186Z,7.00
2022-11-12T21:46:16.828Z,7.00
2022-11-12T21:48:49.903Z,7.00
2022-11-12T21:51:23.171Z,6.90
2022-11-12T21:53:55.031Z,6.90
2022-11-12T21:56:22.876Z,6.90
2022-11-12T21:58:50.768Z,6.90
2022-11-12T22:01:20.759Z,6.80
2022-11-12T22:03:51.689Z,6.80
2022-11-12T22:06:20.741Z,6.80
2022-11-12T22:08:52.068Z,6.80
2022-11-12T22:11:19.922Z,6.70
2022-11-12T22:13:48.045Z,6.70
2022-11-12T22:16:18.042Z,6.70
2022-11-12T22:18:49.807Z,6.70
2022-11-12T22:21:19.575Z,6.70
2022-11-12T22:23:47.522Z,6.60
2022-11-12T22:26:18.680Z,6.60
2022-11-12T22:28:46.533Z,6.60
2022-11-12T22:31:16.048Z,6.60
2022-11-12T22:33:44.168Z,6.60
2022-11-12T22:36:15.256Z,6.60
2022-11-12T22:38:45.141Z,6.50
2022-11-12T22:41:15.086Z,6.50
2022-11-12T22:43:43.425Z,6.50
2022-11-12T22:46:13.784Z,6.50
2022-11-12T22:48:42.046Z,6.60
2022-11-12T22:51:14.049Z,6.60
2022-11-12T22:53:41.906Z,6.50
2022-11-12T22:56:11.945Z,6.60
2022-11-12T22:58:41.017Z,6.50
2022-11-12T23:01:11.784Z,6.50
2022-11-12T23:03:39.700Z,6.50
2022-11-12T23:06:07.794Z,6.50
2022-11-12T23:08:37.218Z,6.50
2022-11-12T23:11:06.405Z,6.50
2022-11-12T23:13:34.752Z,6.50
2022-11-12T23:16:03.129Z,6.50
2022-11-12T23:18:30.993Z,6.40
2022-11-12T23:21:03.483Z,6.40
2022-11-12T23:23:31.323Z,6.40
2022-11-12T23:26:05.091Z,6.40
2022-11-12T23:28:32.948Z,6.40
2022-11-12T23:31:00.785Z,6.40
2022-11-12T23:33:28.807Z,6.40
2022-11-12T23:36:05.003Z,6.40
2022-11-12T23:38:32.879Z,6.40
2022-11-12T23:41:00.974Z,6.40
2022-11-12T23:43:30.376Z,6.40
2022-11-12T23:45:58.354Z,6.40
2022-11-12T23:48:27.350Z,6.30
2022-11-12T23:51:04.238Z,6.40
2022-11-12T23:53:33.379Z,6.30
2022-11-12T23:56:01.444Z,6.30
2022-11-12T23:58:31.446Z,6.30
